createdAt,value
2019-03-03T00:02:02.549Z,11.73
2019-03-03T00:04:32.847Z,14.03
2019-03-03T00:07:03.068Z,15.13
2019-03-03T00:09:33.310Z,15.70
2019-03-03T00:12:03.513Z,14.23
2019-03-03T00:14:33.688Z,14.73
2019-03-03T00:17:03.971Z,10.43
2019-03-03T00:19:34.152Z,9.40
2019-03-03T00:22:04.300Z,11.63
2019-03-03T00:24:34.638Z,10.83
2019-03-03T00:27:04.838Z,12.30
2019-03-03T00:29:34.955Z,12.50
2019-03-03T00:32:05.362Z,12.30
2019-03-03T00:34:35.656Z,7.90
2019-03-03T00:37:23.861Z,7.63
2019-03-03T00:40:19.375Z,8.07
2019-03-03T00:43:01.679Z,9.60
2019-03-03T00:45:49.001Z,10.67
2019-03-03T00:48:36.732Z,8.27
2019-03-03T00:51:31.940Z,9.37
2019-03-03T00:54:20.182Z,11.20
2019-03-03T00:56:59.807Z,9.70
2019-03-03T01:00:01.381Z,8.47
2019-03-03T01:02:45.222Z,8.03
2019-03-03T01:05:40.530Z,8.43
2019-03-03T01:08:28.057Z,8.37
2019-03-03T01:11:19.986Z,10.87
2019-03-03T01:14:24.415Z,13.70
2019-03-03T01:17:16.852Z,11.47
2019-03-03T01:19:58.030Z,11.47
2019-03-03T01:22:59.176Z,13.00
2019-03-03T01:25:29.337Z,10.80
2019-03-03T01:27:59.495Z,9.37
2019-03-03T01:30:29.737Z,10.53
2019-03-03T01:33:00.004Z,12.07
2019-03-03T01:35:30.154Z,9.40
2019-03-03T01:38:00.431Z,10.13
2019-03-03T01:40:30.647Z,9.20
2019-03-03T01:43:00.858Z,10.03
2019-03-03T01:45:31.088Z,11.00
2019-03-03T01:48:01.333Z,10.37
2019-03-03T01:50:31.549Z,10.57
2019-03-03T01:53:01.830Z,11.37
2019-03-03T01:55:32.040Z,10.70
2019-03-03T01:58:02.297Z,11.50
2019-03-03T02:00:32.761Z,12.30
2019-03-03T02:03:02.892Z,11.63
2019-03-03T02:05:33.144Z,11.10
2019-03-03T02:08:03.751Z,10.97
2019-03-03T02:10:33.910Z,9.87
2019-03-03T02:13:04.105Z,9.20
2019-03-03T02:15:34.330Z,9.63
2019-03-03T02:18:04.686Z,11.07
2019-03-03T02:20:34.984Z,10.93
2019-03-03T02:23:05.326Z,9.63
2019-03-03T02:25:35.731Z,11.00
2019-03-03T02:28:05.980Z,9.17
2019-03-03T02:30:36.273Z,9.33
2019-03-03T02:33:06.479Z,9.57
2019-03-03T02:35:36.664Z,9.20
2019-03-03T02:38:07.024Z,10.07
2019-03-03T02:40:37.230Z,9.27
2019-03-03T02:43:07.402Z,9.20
2019-03-03T02:45:37.684Z,9.73
2019-03-03T02:48:07.824Z,9.50
2019-03-03T02:50:38.045Z,10.00
2019-03-03T02:53:08.364Z,10.50
2019-03-03T02:55:38.581Z,8.77
2019-03-03T02:58:08.762Z,10.13
2019-03-03T03:00:44.047Z,10.07
2019-03-03T03:03:14.160Z,8.80
2019-03-03T03:06:04.565Z,9.47
2019-03-03T03:08:53.724Z,9.37
2019-03-03T03:11:32.138Z,8.20
2019-03-03T03:14:14.443Z,7.73
2019-03-03T03:17:12.620Z,9.37
2019-03-03T03:20:01.785Z,8.53
2019-03-03T03:22:49.728Z,9.27
2019-03-03T03:25:47.799Z,9.50
2019-03-03T03:28:36.861Z,9.20
2019-03-03T03:31:18.759Z,9.37
2019-03-03T03:34:08.021Z,10.63
2019-03-03T03:36:57.185Z,10.17
2019-03-03T03:39:33.332Z,10.63
2019-03-03T03:42:14.513Z,10.03
2019-03-03T03:45:09.218Z,10.53
2019-03-03T03:47:53.253Z,9.67
2019-03-03T03:50:45.503Z,9.30
2019-03-03T03:53:24.840Z,10.27
2019-03-03T03:56:14.002Z,9.20
2019-03-03T03:59:07.058Z,10.73
2019-03-03T04:01:49.157Z,9.97
2019-03-03T04:04:27.864Z,9.20
2019-03-03T04:07:15.204Z,11.10
2019-03-03T04:09:59.450Z,11.77
2019-03-03T04:12:57.526Z,10.67
2019-03-03T04:15:46.586Z,9.07
2019-03-03T04:18:32.685Z,11.60
2019-03-03T04:21:24.920Z,10.60
2019-03-03T04:24:16.848Z,8.87
2019-03-03T04:26:56.488Z,9.83
2019-03-03T04:30:03.780Z,10.27
2019-03-03T04:32:47.517Z,11.17
2019-03-03T04:35:25.316Z,11.37
2019-03-03T04:38:26.563Z,11.77
2019-03-03T04:41:15.627Z,11.53
2019-03-03T04:43:52.677Z,13.60
2019-03-03T04:46:40.650Z,12.53
2019-03-03T04:49:34.215Z,14.37
2019-03-03T04:52:26.042Z,12.70
2019-03-03T04:55:17.870Z,11.97
2019-03-03T04:58:10.210Z,13.17
2019-03-03T05:00:57.848Z,13.97
2019-03-03T05:03:33.793Z,14.63
2019-03-03T05:06:29.103Z,15.90
2019-03-03T05:09:17.141Z,14.57
2019-03-03T05:12:52.020Z,14.30
2019-03-03T05:15:40.324Z,16.70
2019-03-03T05:18:29.477Z,15.10
2019-03-03T05:20:59.751Z,15.33
2019-03-03T05:23:29.854Z,13.93
2019-03-03T05:26:00.098Z,14.90
2019-03-03T05:28:30.256Z,17.03
2019-03-03T05:31:00.455Z,17.43
2019-03-03T05:33:30.642Z,16.87
2019-03-03T05:36:00.865Z,16.77
2019-03-03T05:38:31.137Z,16.40
2019-03-03T05:41:01.353Z,15.27
2019-03-03T05:43:31.690Z,16.03
2019-03-03T05:46:01.964Z,15.67
2019-03-03T05:48:32.143Z,13.60
2019-03-03T05:51:02.401Z,14.40
2019-03-03T05:53:32.623Z,13.90
2019-03-03T05:56:02.857Z,13.00
2019-03-03T05:58:33.130Z,14.40
2019-03-03T06:01:03.313Z,14.00
2019-03-03T06:03:33.597Z,12.87
2019-03-03T06:06:03.977Z,13.30
2019-03-03T06:08:34.098Z,13.87
2019-03-03T06:11:04.443Z,12.80
2019-03-03T06:13:34.754Z,13.60
2019-03-03T06:16:05.605Z,14.47
2019-03-03T06:18:35.919Z,13.03
2019-03-03T06:21:07.938Z,14.83
2019-03-03T06:23:38.088Z,12.53
2019-03-03T06:26:09.033Z,14.07
2019-03-03T06:28:39.382Z,15.40
2019-03-03T06:31:09.530Z,14.10
2019-03-03T06:33:39.830Z,15.30
2019-03-03T06:36:10.134Z,14.00
2019-03-03T06:38:41.657Z,14.03
2019-03-03T06:41:13.958Z,15.70
2019-03-03T06:43:44.222Z,14.70
2019-03-03T06:46:14.438Z,13.87
2019-03-03T06:48:44.578Z,14.90
2019-03-03T06:51:14.780Z,13.90
2019-03-03T06:53:45.006Z,14.77
2019-03-03T06:56:15.198Z,15.37
2019-03-03T06:58:45.379Z,19.37
2019-03-03T07:01:15.566Z,20.23
2019-03-03T07:03:45.778Z,20.73
2019-03-03T07:06:16.345Z,18.67
2019-03-03T07:08:46.473Z,16.90
2019-03-03T07:11:16.690Z,17.57
2019-03-03T07:13:46.873Z,18.23
2019-03-03T07:16:17.039Z,18.30
2019-03-03T07:18:47.321Z,16.70
2019-03-03T07:21:17.522Z,18.27
2019-03-03T07:23:47.891Z,19.27
2019-03-03T07:26:18.074Z,19.70
2019-03-03T07:28:48.246Z,19.00
2019-03-03T07:31:18.510Z,18.57
2019-03-03T07:33:52.903Z,18.40
2019-03-03T07:36:23.144Z,18.00
2019-03-03T07:38:53.378Z,17.77
2019-03-03T07:41:23.537Z,18.17
2019-03-03T07:43:53.724Z,18.37
2019-03-03T07:46:24.030Z,18.43
2019-03-03T07:48:54.181Z,18.30
2019-03-03T07:51:24.030Z,18.93
2019-03-03T07:53:54.304Z,18.53
2019-03-03T07:56:24.413Z,18.90
2019-03-03T07:58:54.594Z,21.00
2019-03-03T08:01:24.750Z,19.53
2019-03-03T08:03:54.974Z,18.40
2019-03-03T08:06:25.366Z,19.57
2019-03-03T08:08:55.429Z,18.30
2019-03-03T08:11:25.708Z,19.53
2019-03-03T08:13:55.809Z,18.20
2019-03-03T08:16:26.089Z,18.83
2019-03-03T08:18:56.353Z,18.33
2019-03-03T08:21:26.474Z,18.60
2019-03-03T08:23:56.977Z,19.27
2019-03-03T08:26:27.217Z,18.37
2019-03-03T08:28:57.353Z,20.17
2019-03-03T08:31:27.560Z,23.03
2019-03-03T08:33:57.906Z,21.57
2019-03-03T08:36:28.250Z,23.77
2019-03-03T08:38:58.477Z,22.77
2019-03-03T08:41:28.762Z,21.53
2019-03-03T08:44:08.509Z,25.03
2019-03-03T08:46:54.697Z,27.57
2019-03-03T08:49:39.681Z,26.30
2019-03-03T08:52:33.230Z,28.40
2019-03-03T08:55:13.709Z,30.20
2019-03-03T08:58:01.745Z,31.23
2019-03-03T09:00:40.571Z,30.00
2019-03-03T09:03:34.548Z,30.60
2019-03-03T09:06:26.888Z,31.00
2019-03-03T09:09:11.021Z,31.20
2019-03-03T09:12:09.110Z,32.33
2019-03-03T09:15:10.664Z,30.57
2019-03-03T09:18:10.568Z,31.93
2019-03-03T09:20:58.622Z,31.67
2019-03-03T09:23:53.520Z,32.73
2019-03-03T09:26:41.661Z,30.93
2019-03-03T09:29:39.839Z,33.30
2019-03-03T09:32:37.486Z,32.73
2019-03-03T09:35:29.845Z,33.47
2019-03-03T09:38:09.576Z,33.83
2019-03-03T09:40:46.423Z,37.70
2019-03-03T09:43:41.364Z,33.60
2019-03-03T09:46:29.299Z,34.23
2019-03-03T09:49:27.374Z,34.77
2019-03-03T09:52:14.698Z,44.00
2019-03-03T09:54:52.343Z,41.83
2019-03-03T09:57:53.435Z,38.97
2019-03-03T10:00:44.586Z,38.23
2019-03-03T10:03:53.578Z,43.30
2019-03-03T10:06:43.567Z,39.67
2019-03-03T10:09:50.265Z,39.63
2019-03-03T10:12:31.112Z,44.53
2019-03-03T10:15:21.527Z,46.27
2019-03-03T10:18:10.773Z,46.53
2019-03-03T10:20:57.683Z,47.80
2019-03-03T10:23:46.746Z,47.27
2019-03-03T10:26:24.954Z,45.07
2019-03-03T10:29:09.822Z,47.23
2019-03-03T10:32:01.954Z,49.90
2019-03-03T10:34:51.015Z,49.57
2019-03-03T10:37:38.439Z,50.40
2019-03-03T10:40:28.320Z,50.30
2019-03-03T10:43:06.121Z,46.03
2019-03-03T10:45:52.959Z,45.63
2019-03-03T10:48:41.992Z,50.13
2019-03-03T10:51:29.928Z,53.67
2019-03-03T10:54:18.071Z,57.33
2019-03-03T10:57:10.410Z,51.37
2019-03-03T10:59:54.960Z,47.20
2019-03-03T11:02:51.815Z,47.70
2019-03-03T11:05:50.192Z,51.03
2019-03-03T11:08:42.429Z,49.13
2019-03-03T11:11:31.597Z,51.20
2019-03-03T11:14:20.763Z,47.43
2019-03-03T11:17:03.577Z,46.67
2019-03-03T11:20:01.655Z,47.57
2019-03-03T11:22:45.887Z,46.80
2019-03-03T11:25:34.248Z,45.63
2019-03-03T11:28:26.382Z,43.47
2019-03-03T11:31:06.543Z,45.83
2019-03-03T11:33:54.472Z,47.60
2019-03-03T11:36:35.975Z,42.20
2019-03-03T11:39:35.569Z,41.47
2019-03-03T11:42:24.019Z,31.10
2019-03-03T11:45:19.837Z,39.90
2019-03-03T11:48:07.757Z,39.93
2019-03-03T11:51:15.277Z,38.23
2019-03-03T11:53:51.736Z,39.10
2019-03-03T11:56:39.572Z,40.73
2019-03-03T11:59:27.508Z,37.43
2019-03-03T12:02:15.137Z,36.30
2019-03-03T12:05:07.169Z,36.37
2019-03-03T12:07:44.599Z,37.27
2019-03-03T12:10:40.072Z,37.43
2019-03-03T12:13:47.362Z,40.78
2019-03-03T12:16:36.627Z,39.48
2019-03-03T12:19:21.906Z,38.38
2019-03-03T12:22:02.058Z,42.48
2019-03-03T12:24:40.368Z,44.27
2019-03-03T12:27:28.917Z,43.85
2019-03-03T12:30:20.439Z,43.80
2019-03-03T12:33:18.614Z,45.10
2019-03-03T12:36:06.963Z,44.35
2019-03-03T12:38:51.825Z,44.80
2019-03-03T12:41:40.992Z,46.13
2019-03-03T12:44:30.159Z,45.25
2019-03-03T12:47:28.232Z,46.83
2019-03-03T12:50:29.785Z,47.73
2019-03-03T12:53:37.278Z,43.17
2019-03-03T12:56:24.586Z,46.90
2019-03-03T12:59:05.769Z,44.83
2019-03-03T13:01:57.914Z,44.65
2019-03-03T13:04:47.080Z,42.23
2019-03-03T13:07:45.860Z,42.15
2019-03-03T13:10:53.570Z,39.42
2019-03-03T13:13:42.838Z,40.92
2019-03-03T13:16:30.693Z,38.53
2019-03-03T13:19:20.147Z,37.38
2019-03-03T13:22:13.918Z,36.38
2019-03-03T13:25:09.534Z,36.05
2019-03-03T13:27:50.490Z,34.30
2019-03-03T13:30:55.441Z,37.80
2019-03-03T13:33:54.473Z,34.88
2019-03-03T13:36:49.848Z,30.60
2019-03-03T13:39:38.090Z,31.40
2019-03-03T13:42:26.130Z,32.33
2019-03-03T13:44:57.669Z,30.72
2019-03-03T13:47:28.625Z,35.40
2019-03-03T13:50:01.814Z,40.15
2019-03-03T13:52:32.466Z,37.90
2019-03-03T13:55:03.252Z,36.15
2019-03-03T13:57:35.115Z,34.83
2019-03-03T14:00:09.340Z,39.33
2019-03-03T14:02:42.373Z,40.52
2019-03-03T14:05:13.376Z,39.38
2019-03-03T14:07:44.047Z,37.53
2019-03-03T14:10:15.439Z,40.63
2019-03-03T14:12:46.097Z,41.00
2019-03-03T14:15:18.524Z,37.10
2019-03-03T14:17:50.328Z,34.00
2019-03-03T14:20:21.920Z,33.13
2019-03-03T14:22:53.680Z,34.98
2019-03-03T14:25:23.917Z,33.28
2019-03-03T14:27:54.198Z,33.70
2019-03-03T14:30:25.627Z,28.60
2019-03-03T14:32:56.047Z,25.77
2019-03-03T14:35:26.268Z,28.40
2019-03-03T14:37:57.110Z,25.75
2019-03-03T14:40:27.428Z,24.90
2019-03-03T14:42:57.706Z,24.70
2019-03-03T14:45:28.175Z,25.77
2019-03-03T14:47:58.426Z,25.95
2019-03-03T14:50:28.716Z,24.00
2019-03-03T14:52:59.217Z,22.05
2019-03-03T14:55:29.399Z,23.15
2019-03-03T14:57:59.716Z,22.55
2019-03-03T15:00:31.986Z,23.75
2019-03-03T15:03:03.643Z,23.20
2019-03-03T15:05:34.581Z,23.38
2019-03-03T15:08:04.767Z,22.48
2019-03-03T15:10:35.055Z,21.80
2019-03-03T15:13:05.370Z,23.25
2019-03-03T15:15:35.996Z,22.75
2019-03-03T15:18:06.366Z,23.15
2019-03-03T15:20:36.922Z,31.87
2019-03-03T15:23:07.118Z,32.13
2019-03-03T15:25:37.390Z,31.57
2019-03-03T15:28:07.607Z,31.65
2019-03-03T15:30:37.862Z,31.73
2019-03-03T15:33:08.112Z,31.55
2019-03-03T15:35:38.428Z,29.63
2019-03-03T15:38:08.926Z,27.90
2019-03-03T15:40:39.337Z,34.27
2019-03-03T15:43:09.565Z,64.87
2019-03-03T15:45:41.156Z,136.03
2019-03-03T15:48:11.419Z,38.67
2019-03-03T15:50:41.811Z,34.73
2019-03-03T15:53:12.040Z,39.03
2019-03-03T15:55:42.354Z,82.57
2019-03-03T15:58:14.261Z,41.02
2019-03-03T16:00:45.809Z,32.73
2019-03-03T16:03:16.977Z,30.70
2019-03-03T16:05:48.091Z,27.75
2019-03-03T16:08:19.014Z,28.77
2019-03-03T16:10:53.344Z,34.30
2019-03-03T16:13:26.478Z,30.02
2019-03-03T16:15:58.362Z,28.10
2019-03-03T16:18:29.787Z,31.87
2019-03-03T16:21:01.407Z,30.48
2019-03-03T16:23:32.757Z,31.05
2019-03-03T16:26:04.404Z,33.00
2019-03-03T16:28:35.720Z,45.30
2019-03-03T16:31:07.497Z,56.50
2019-03-03T16:33:41.492Z,52.70
2019-03-03T16:36:13.322Z,62.83
2019-03-03T16:38:44.853Z,82.57
2019-03-03T16:41:16.320Z,51.80
2019-03-03T16:43:47.762Z,42.83
2019-03-03T16:46:19.475Z,38.73
2019-03-03T16:48:51.710Z,34.87
2019-03-03T16:51:23.617Z,35.23
2019-03-03T16:53:56.413Z,28.40
2019-03-03T16:56:28.974Z,30.13
2019-03-03T16:59:00.857Z,31.20
2019-03-03T17:01:32.205Z,34.87
2019-03-03T17:04:05.143Z,32.80
2019-03-03T17:06:36.942Z,33.10
2019-03-03T17:09:09.539Z,34.00
2019-03-03T17:11:41.639Z,35.87
2019-03-03T17:14:13.707Z,41.63
2019-03-03T17:16:50.466Z,54.70
2019-03-03T17:19:23.418Z,39.23
2019-03-03T17:21:55.470Z,36.07
2019-03-03T17:24:28.273Z,35.00
2019-03-03T17:27:02.491Z,87.80
2019-03-03T17:29:34.013Z,202.97
2019-03-03T17:32:08.561Z,96.00
2019-03-03T17:34:40.161Z,56.93
2019-03-03T17:37:11.763Z,215.30
2019-03-03T17:39:44.586Z,563.53
2019-03-03T17:42:16.341Z,385.40
2019-03-03T17:44:47.875Z,73.43
2019-03-03T17:47:19.419Z,52.77
2019-03-03T17:49:51.140Z,37.93
2019-03-03T17:52:23.508Z,31.03
2019-03-03T17:54:54.717Z,31.30
2019-03-03T17:57:26.292Z,31.13
2019-03-03T17:59:57.706Z,29.10
2019-03-03T18:02:29.334Z,28.17
2019-03-03T18:05:01.098Z,27.70
2019-03-03T18:07:32.461Z,29.07
2019-03-03T18:10:05.227Z,28.50
2019-03-03T18:12:36.681Z,28.73
2019-03-03T18:15:08.528Z,31.97
2019-03-03T18:17:39.524Z,30.07
2019-03-03T18:20:12.490Z,31.10
2019-03-03T18:22:44.531Z,29.37
2019-03-03T18:25:16.994Z,31.77
2019-03-03T18:27:48.759Z,29.77
2019-03-03T18:30:21.099Z,32.00
2019-03-03T18:32:52.591Z,32.40
2019-03-03T18:35:24.197Z,112.10
2019-03-03T18:37:57.777Z,123.53
2019-03-03T18:40:32.582Z,98.20
2019-03-03T18:43:04.867Z,187.73
2019-03-03T18:45:35.736Z,157.70
2019-03-03T18:48:06.718Z,212.83
2019-03-03T18:50:37.403Z,138.67
2019-03-03T18:53:07.964Z,123.77
2019-03-03T18:55:38.414Z,65.83
2019-03-03T18:58:08.829Z,44.03
2019-03-03T19:00:45.669Z,51.33
2019-03-03T19:03:21.703Z,31.87
2019-03-03T19:05:55.997Z,28.87
2019-03-03T19:08:41.328Z,29.47
2019-03-03T19:11:15.895Z,29.37
2019-03-03T19:13:47.622Z,33.43
2019-03-03T19:16:19.995Z,30.27
2019-03-03T19:18:51.788Z,34.30
2019-03-03T19:21:22.248Z,34.83
2019-03-03T19:23:53.169Z,28.53
2019-03-03T19:26:23.655Z,28.33
2019-03-03T19:28:57.275Z,34.93
2019-03-03T19:31:29.464Z,36.93
2019-03-03T19:34:00.938Z,38.77
2019-03-03T19:36:33.710Z,41.20
2019-03-03T19:39:05.930Z,41.53
2019-03-03T19:41:36.648Z,40.37
2019-03-03T19:44:07.869Z,41.37
2019-03-03T19:46:40.596Z,38.30
2019-03-03T19:49:11.965Z,39.60
2019-03-03T19:51:43.301Z,38.90
2019-03-03T19:54:13.973Z,40.17
2019-03-03T19:56:47.313Z,36.33
2019-03-03T19:59:18.232Z,38.37
2019-03-03T20:01:49.425Z,39.10
2019-03-03T20:04:20.549Z,37.30
2019-03-03T20:06:52.073Z,37.53
2019-03-03T20:09:23.310Z,55.40
2019-03-03T20:11:54.012Z,45.93
2019-03-03T20:14:24.668Z,58.80
2019-03-03T20:16:56.110Z,35.33
2019-03-03T20:19:26.331Z,30.23
2019-03-03T20:21:56.853Z,39.63
2019-03-03T20:24:27.049Z,34.80
2019-03-03T20:26:57.425Z,33.23
2019-03-03T20:29:27.694Z,31.47
2019-03-03T20:31:57.869Z,23.23
2019-03-03T20:34:28.123Z,20.20
2019-03-03T20:36:58.512Z,21.37
2019-03-03T20:39:28.900Z,15.50
2019-03-03T20:41:59.063Z,15.43
2019-03-03T20:44:29.375Z,14.30
2019-03-03T20:46:59.653Z,19.50
2019-03-03T20:49:30.139Z,16.03
2019-03-03T20:52:03.019Z,17.27
2019-03-03T20:54:33.399Z,17.63
2019-03-03T20:57:03.569Z,13.80
2019-03-03T20:59:33.943Z,13.03
2019-03-03T21:02:04.617Z,12.00
2019-03-03T21:04:34.840Z,13.73
2019-03-03T21:07:05.251Z,14.67
2019-03-03T21:09:35.521Z,12.77
2019-03-03T21:12:05.686Z,11.63
2019-03-03T21:14:36.028Z,13.00
2019-03-03T21:17:06.292Z,13.13
2019-03-03T21:19:36.574Z,12.60
2019-03-03T21:22:06.849Z,10.70
2019-03-03T21:24:37.063Z,10.10
2019-03-03T21:27:07.266Z,10.03
2019-03-03T21:29:37.509Z,10.23
2019-03-03T21:32:07.680Z,9.57
2019-03-03T21:34:37.719Z,11.13
2019-03-03T21:37:07.950Z,9.90
2019-03-03T21:39:38.137Z,10.43
2019-03-03T21:42:08.402Z,9.27
2019-03-03T21:44:38.622Z,9.40
2019-03-03T21:47:08.783Z,9.63
2019-03-03T21:49:38.946Z,8.80
2019-03-03T21:52:09.185Z,9.97
2019-03-03T21:54:39.392Z,9.37
2019-03-03T21:57:09.510Z,7.87
2019-03-03T21:59:39.810Z,9.07
2019-03-03T22:02:09.891Z,8.53
2019-03-03T22:04:40.186Z,8.63
2019-03-03T22:07:10.465Z,8.80
2019-03-03T22:09:40.689Z,8.50
2019-03-03T22:12:10.771Z,8.60
2019-03-03T22:14:41.102Z,7.80
2019-03-03T22:17:11.224Z,8.57
2019-03-03T22:19:41.345Z,8.77
2019-03-03T22:22:11.675Z,9.37
2019-03-03T22:24:41.838Z,8.20
2019-03-03T22:27:12.808Z,8.33
2019-03-03T22:29:43.205Z,9.77
2019-03-03T22:32:13.373Z,9.10
2019-03-03T22:34:43.534Z,9.30
2019-03-03T22:37:13.817Z,8.93
2019-03-03T22:39:43.939Z,8.50
2019-03-03T22:42:14.102Z,8.90
2019-03-03T22:44:44.381Z,9.07
2019-03-03T22:47:14.512Z,9.13
2019-03-03T22:49:44.679Z,8.70
2019-03-03T22:52:14.926Z,9.47
2019-03-03T22:54:45.077Z,8.37
2019-03-03T22:57:15.271Z,8.60
2019-03-03T22:59:45.496Z,9.00
2019-03-03T23:02:16.869Z,8.97
2019-03-03T23:05:20.559Z,8.47
2019-03-03T23:08:13.937Z,7.97
2019-03-03T23:11:40.273Z,8.63
2019-03-03T23:14:33.579Z,9.20
2019-03-03T23:17:56.904Z,8.83
2019-03-03T23:20:36.573Z,8.70
2019-03-03T23:24:00.001Z,8.97
2019-03-03T23:26:30.274Z,8.20
2019-03-03T23:29:00.433Z,9.17
2019-03-03T23:31:30.617Z,7.97
2019-03-03T23:34:00.830Z,8.67
2019-03-03T23:36:31.060Z,8.17
2019-03-03T23:39:01.127Z,8.90
2019-03-03T23:41:31.387Z,8.37
2019-03-03T23:44:01.499Z,9.03
2019-03-03T23:46:31.718Z,9.10
2019-03-03T23:49:01.916Z,8.47
2019-03-03T23:51:32.073Z,8.23
2019-03-03T23:54:02.465Z,9.43
2019-03-03T23:56:32.539Z,8.40
2019-03-03T23:59:02.723Z,7.90
